Time;durP1;ratioP1;P1;durP2;ratioP2;P2;SDS_P1;SDS_P2;PMS_P1;PMS_P2;Temp;Humidity;BMP_temperature;BMP_pressure;BME280_temperature;BME280_humidity;BME280_pressure;Samples;Min_cycle;Max_cycle;Signal;HPM_P1;HPM_P2
2022/11/15 00:00:57;;;;;;;48.90;37.10;;;;;;;4.29;73.14;95525.44;5135418;28;20214;-72
2022/11/15 00:03:27;;;;;;;46.20;36.65;;;;;;;4.32;72.89;95521.28;5135074;28;20198;-72
2022/11/15 00:05:54;;;;;;;42.15;36.38;;;;;;;4.32;72.55;95516.66;5135249;28;20199;-73
2022/11/15 00:08:21;;;;;;;46.13;38.63;;;;;;;4.33;72.53;95514.72;5136112;27;20211;-74
2022/11/15 00:10:55;;;;;;;45.67;37.75;;;;;;;4.33;72.52;95510.06;5135208;28;20607;-73
2022/11/15 00:13:22;;;;;;;46.20;36.80;;;;;;;4.32;71.84;95516.66;5135134;28;20190;-74
2022/11/15 00:15:49;;;;;;;45.03;36.95;;;;;;;4.30;72.22;95515.31;5135425;28;20206;-73
2022/11/15 00:18:17;;;;;;;45.38;36.70;;;;;;;4.25;72.06;95510.78;5135423;28;20195;-73
2022/11/15 00:20:44;;;;;;;45.25;36.13;;;;;;;4.09;71.78;95502.03;5135202;28;20195;-73
2022/11/15 00:23:12;;;;;;;41.40;34.05;;;;;;;4.04;72.25;95502.16;5134651;28;20202;-73
2022/11/15 00:25:39;;;;;;;43.25;34.42;;;;;;;4.07;72.40;95504.28;5136195;27;20184;-73
2022/11/15 00:28:06;;;;;;;42.05;35.90;;;;;;;4.09;72.33;95498.50;5135574;27;20589;-73
2022/11/15 00:30:32;;;;;;;43.17;36.78;;;;;;;4.12;72.46;95499.84;5135122;28;20228;-73
2022/11/15 00:33:03;;;;;;;46.05;36.72;;;;;;;4.12;72.12;95488.91;5138920;27;20187;-75
2022/11/15 00:35:32;;;;;;;47.13;36.03;;;;;;;4.12;72.40;95497.09;5139814;27;20176;-74
2022/11/15 00:37:59;;;;;;;41.95;35.33;;;;;;;4.10;72.26;95498.22;5139507;27;20606;-74
2022/11/15 00:40:26;;;;;;;44.03;35.10;;;;;;;4.10;72.55;95500.94;5138870;27;20202;-74
2022/11/15 00:42:53;;;;;;;42.75;34.95;;;;;;;4.13;72.59;95496.78;5139728;27;20260;-73
2022/11/15 00:45:20;;;;;;;44.10;35.30;;;;;;;4.16;72.29;95496.19;5138900;27;20199;-73
2022/11/15 00:47:48;;;;;;;42.55;34.53;;;;;;;4.14;72.19;95490.25;5139435;27;20182;-73
2022/11/15 00:50:14;;;;;;;42.13;33.92;;;;;;;4.07;72.17;95487.09;5139533;27;20202;-73
2022/11/15 00:52:43;;;;;;;41.70;33.17;;;;;;;4.02;72.14;95489.91;5138716;27;20203;-72
2022/11/15 00:55:15;;;;;;;41.20;33.85;;;;;;;3.97;72.20;95487.28;5139449;27;20266;-72
2022/11/15 00:57:41;;;;;;;40.75;34.00;;;;;;;3.94;71.77;95496.06;5139618;27;20211;-71
2022/11/15 01:00:09;;;;;;;41.75;33.30;;;;;;;3.95;72.34;95486.75;5138884;27;20203;-72
2022/11/15 01:02:36;;;;;;;40.55;34.15;;;;;;;3.97;72.66;95482.63;5138471;27;20537;-71
2022/11/15 01:05:03;;;;;;;41.50;33.70;;;;;;;3.98;72.56;95481.50;5138938;27;20191;-71
2022/11/15 01:07:30;;;;;;;42.90;33.38;;;;;;;3.99;72.89;95485.84;5138703;27;20195;-71
2022/11/15 01:09:58;;;;;;;41.38;34.00;;;;;;;4.00;72.89;95483.94;5139391;27;20207;-71
2022/11/15 01:12:24;;;;;;;39.58;34.38;;;;;;;4.05;73.25;95478.38;5139131;27;20195;-71
2022/11/15 01:14:51;;;;;;;37.55;32.70;;;;;;;4.05;72.56;95481.13;5139042;27;20187;-73
2022/11/15 01:17:18;;;;;;;40.33;33.97;;;;;;;4.07;72.35;95485.16;5139111;27;20194;-73
2022/11/15 01:19:45;;;;;;;42.22;34.67;;;;;;;4.10;72.64;95478.28;5137967;27;20202;-73
2022/11/15 01:22:11;;;;;;;42.08;32.83;;;;;;;4.11;72.80;95482.66;5137969;27;20191;-73
2022/11/15 01:24:41;;;;;;;41.25;33.70;;;;;;;4.10;72.18;95483.75;5138959;27;20195;-73
2022/11/15 01:27:09;;;;;;;42.40;33.33;;;;;;;4.07;72.32;95474.25;5138843;27;20187;-73
2022/11/15 01:29:36;;;;;;;40.97;33.03;;;;;;;4.05;72.50;95475.66;5137926;27;20271;-73
2022/11/15 01:32:03;;;;;;;40.42;33.45;;;;;;;4.06;72.50;95478.06;5138050;27;20202;-73
2022/11/15 01:34:30;;;;;;;42.95;32.45;;;;;;;4.04;72.51;95487.69;5138786;27;20175;-73
2022/11/15 01:36:57;;;;;;;44.58;34.80;;;;;;;4.00;72.59;95476.56;5138295;27;20191;-73
2022/11/15 01:39:26;;;;;;;42.17;34.20;;;;;;;3.99;72.37;95477.66;5138656;27;20187;-73
2022/11/15 01:41:52;;;;;;;46.13;36.72;;;;;;;3.92;71.97;95468.25;5137608;27;20202;-72
2022/11/15 01:44:45;;;;;;;45.45;35.13;;;;;;;3.90;72.08;95465.84;5138121;27;20179;-72
2022/11/15 01:47:14;;;;;;;42.83;34.05;;;;;;;3.85;72.35;95469.47;5137217;27;20202;-72
2022/11/15 01:49:50;;;;;;;43.35;34.38;;;;;;;3.89;72.67;95469.69;5138672;27;20252;-73
2022/11/15 01:52:20;;;;;;;39.30;30.70;;;;;;;3.91;72.36;95466.63;5138627;27;20236;-72
2022/11/15 01:54:47;;;;;;;37.67;31.52;;;;;;;3.91;72.54;95463.91;5137279;27;20587;-72
2022/11/15 01:57:15;;;;;;;38.22;30.77;;;;;;;3.93;72.94;95465.22;5137442;27;20300;-72
2022/11/15 01:59:44;;;;;;;36.00;30.67;;;;;;;3.95;72.84;95459.47;5138342;27;20199;-72
2022/11/15 02:02:11;;;;;;;39.28;31.88;;;;;;;3.97;73.33;95459.97;5137551;27;20195;-72
2022/11/15 02:04:42;;;;;;;39.45;33.13;;;;;;;3.91;73.13;95469.38;5138280;27;20183;-72
2022/11/15 02:07:10;;;;;;;39.80;32.85;;;;;;;3.90;72.87;95471.28;5137999;27;20203;-72
2022/11/15 02:09:38;;;;;;;38.25;31.70;;;;;;;3.92;72.58;95462.78;5137090;27;20646;-72
2022/11/15 02:12:07;;;;;;;42.92;32.40;;;;;;;3.91;72.85;95458.44;5138067;27;20175;-72
2022/11/15 02:14:34;;;;;;;41.38;32.88;;;;;;;3.91;72.30;95459.25;5137744;27;20696;-72
2022/11/15 02:17:12;;;;;;;38.22;32.05;;;;;;;3.90;72.67;95460.38;5136889;27;20252;-72
2022/11/15 02:20:07;;;;;;;39.67;32.25;;;;;;;3.89;72.36;95458.75;5137998;27;20514;-73
2022/11/15 02:22:38;;;;;;;39.42;34.95;;;;;;;3.76;72.21;95463.06;5136860;27;20206;-73
2022/11/15 02:25:15;;;;;;;39.17;34.78;;;;;;;3.72;72.14;95456.59;5137363;27;20587;-73
2022/11/15 02:27:58;;;;;;;40.63;34.75;;;;;;;3.70;72.26;95458.00;5137362;27;20543;-72
2022/11/15 02:30:32;;;;;;;38.38;33.50;;;;;;;3.62;72.54;95463.03;5136697;27;20219;-72
2022/11/15 02:33:02;;;;;;;38.75;34.00;;;;;;;3.60;72.39;95453.53;5136677;27;20194;-73
2022/11/15 02:35:38;;;;;;;38.35;34.20;;;;;;;3.60;72.71;95457.09;5137749;27;20183;-72
2022/11/15 02:38:09;;;;;;;37.85;33.83;;;;;;;3.60;72.76;95454.34;5137365;27;20191;-72
2022/11/15 02:40:41;;;;;;;39.97;34.53;;;;;;;3.63;72.85;95450.19;5137452;27;20269;-72
2022/11/15 02:46:01;;;;;;;40.30;35.97;;;;;;;3.61;72.78;95450.50;5136059;27;20198;-72
2022/11/15 02:48:28;;;;;;;40.97;34.38;;;;;;;3.61;72.59;95450.50;5137202;27;20259;-72
2022/11/15 02:50:56;;;;;;;41.13;33.85;;;;;;;3.56;72.55;95453.34;5135908;27;20191;-72
2022/11/15 02:53:25;;;;;;;40.78;34.88;;;;;;;3.48;72.65;95456.72;5136442;27;20657;-73
2022/11/15 02:55:52;;;;;;;38.05;33.92;;;;;;;3.49;72.47;95460.28;5136268;27;20191;-73
2022/11/15 02:58:45;;;;;;;38.33;33.85;;;;;;;3.49;72.65;95466.53;5136200;27;20255;-72
2022/11/15 03:01:21;;;;;;;37.55;33.60;;;;;;;3.52;73.16;95467.84;5136250;27;20202;-72
2022/11/15 03:03:55;;;;;;;40.95;35.30;;;;;;;3.55;73.21;95476.25;5137465;27;20533;-72
2022/11/15 03:06:30;;;;;;;36.88;32.78;;;;;;;3.58;73.20;95474.84;5137063;27;20188;-72
2022/11/15 03:09:04;;;;;;;39.33;34.72;;;;;;;3.61;73.07;95466.06;5136009;27;20218;-72
2022/11/15 03:11:34;;;;;;;39.08;34.03;;;;;;;3.60;73.10;95459.00;5137123;27;20206;-72
2022/11/15 03:14:07;;;;;;;37.03;32.05;;;;;;;3.59;73.16;95460.09;5135987;27;20203;-72
2022/11/15 03:16:38;;;;;;;36.78;32.88;;;;;;;3.60;72.94;95454.34;5136521;27;20209;-74
2022/11/15 03:19:09;;;;;;;35.88;31.75;;;;;;;3.63;73.07;95450.19;5136314;27;20183;-73
2022/11/15 03:21:37;;;;;;;36.97;32.20;;;;;;;3.68;73.17;95452.84;5136670;27;20179;-73
2022/11/15 03:24:07;;;;;;;38.22;34.03;;;;;;;3.74;73.19;95456.28;5136382;27;20194;-73
2022/11/15 03:26:34;;;;;;;38.83;33.42;;;;;;;3.78;73.25;95452.69;5136579;27;20187;-72
2022/11/15 03:29:05;;;;;;;41.50;34.80;;;;;;;3.79;73.15;95448.84;5135751;27;20218;-72
2022/11/15 03:31:49;;;;;;;37.33;32.65;;;;;;;3.81;73.61;95448.53;5135490;27;20219;-72
2022/11/15 03:34:26;;;;;;;40.13;34.20;;;;;;;3.80;73.42;95441.44;5136557;27;20284;-72
2022/11/15 03:36:53;;;;;;;41.55;35.45;;;;;;;3.84;73.90;95442.47;5136332;27;20222;-72
2022/11/15 03:39:21;;;;;;;42.75;33.83;;;;;;;3.86;73.89;95438.34;5136439;27;20190;-72
2022/11/15 03:41:50;;;;;;;37.72;33.70;;;;;;;3.90;73.77;95435.81;5136585;27;20194;-72
2022/11/15 03:44:23;;;;;;;39.15;33.95;;;;;;;3.94;73.94;95438.75;5135574;27;20518;-72
2022/11/15 03:46:56;;;;;;;38.45;33.83;;;;;;;3.99;74.04;95431.25;5135350;27;20199;-72
2022/11/15 03:49:26;;;;;;;39.63;33.92;;;;;;;4.02;74.14;95427.94;5136062;27;20207;-72
2022/11/15 03:51:53;;;;;;;39.78;35.33;;;;;;;4.06;74.15;95428.13;5135332;27;20190;-72
2022/11/15 03:54:19;;;;;;;41.13;36.60;;;;;;;4.09;74.62;95425.59;5135258;27;20184;-72
2022/11/15 03:56:46;;;;;;;52.72;42.42;;;;;;;4.10;74.30;95419.06;5135067;28;20187;-72
2022/11/15 03:59:13;;;;;;;52.63;43.05;;;;;;;4.10;74.38;95418.22;5134905;28;20191;-72
2022/11/15 04:01:39;;;;;;;54.80;43.35;;;;;;;4.11;74.45;95419.84;5135767;28;20244;-73
2022/11/15 04:04:10;;;;;;;53.53;40.00;;;;;;;4.13;74.88;95419.53;5135658;28;20217;-73
2022/11/15 04:06:37;;;;;;;52.67;38.25;;;;;;;4.12;74.89;95412.47;5136102;27;20203;-73
2022/11/15 04:09:03;;;;;;;55.17;41.33;;;;;;;4.14;75.16;95411.06;5139051;27;20219;-73
2022/11/15 04:11:30;;;;;;;50.97;38.47;;;;;;;4.14;75.45;95415.69;5139394;27;20202;-73
2022/11/15 04:13:57;;;;;;;43.72;34.40;;;;;;;4.13;76.13;95417.63;5140250;27;20202;-73
2022/11/15 04:16:44;;;;;;;48.95;34.13;;;;;;;4.16;76.23;95414.28;5139858;27;20573;-73
2022/11/15 04:25:40;;;;;;;48.90;35.80;;;;;;;4.25;77.41;95409.75;5139670;27;20194;-75
2022/11/15 04:28:07;;;;;;;48.45;37.65;;;;;;;4.23;77.25;95408.44;5139724;27;20202;-75
2022/11/15 04:30:33;;;;;;;54.78;40.90;;;;;;;4.23;77.68;95413.88;5138990;27;20214;-75
2022/11/15 04:33:00;;;;;;;58.88;42.00;;;;;;;4.29;77.37;95413.47;5139142;27;20210;-75
2022/11/15 04:35:28;;;;;;;60.78;44.33;;;;;;;4.30;77.50;95406.09;5139167;27;20191;-75
2022/11/15 04:37:55;;;;;;;62.63;45.92;;;;;;;4.30;77.94;95414.28;5138989;27;20191;-75
2022/11/15 04:40:21;;;;;;;56.72;41.95;;;;;;;4.32;78.04;95409.31;5139674;27;20523;-75
2022/11/15 04:42:48;;;;;;;54.45;37.90;;;;;;;4.32;78.40;95412.88;5138912;27;20231;-75
2022/11/15 04:45:15;;;;;;;49.15;34.47;;;;;;;4.31;78.46;95408.50;5138800;27;20201;-75
2022/11/15 04:47:45;;;;;;;52.92;34.33;;;;;;;4.33;78.65;95413.69;5139062;27;20198;-74
2022/11/15 04:50:14;;;;;;;54.78;37.17;;;;;;;4.38;79.02;95415.50;5138768;27;20211;-74
2022/11/15 04:52:43;;;;;;;54.53;38.63;;;;;;;4.42;78.87;95414.56;5138693;27;20187;-75
2022/11/15 04:55:12;;;;;;;56.28;40.63;;;;;;;4.45;78.84;95413.97;5139217;27;20202;-74
2022/11/15 04:57:39;;;;;;;51.85;38.25;;;;;;;4.44;78.71;95415.09;5139733;27;20187;-75
2022/11/15 05:00:11;;;;;;;53.30;37.80;;;;;;;4.45;78.97;95415.88;5139259;27;20191;-75
2022/11/15 05:05:24;;;;;;;62.42;39.60;;;;;;;4.45;78.50;95419.44;5138394;27;20194;-75
2022/11/15 05:07:53;;;;;;;58.25;38.83;;;;;;;4.47;78.76;95424.59;5138378;27;20198;-75
2022/11/15 05:10:20;;;;;;;61.10;39.90;;;;;;;4.47;78.80;95419.94;5138237;27;20260;-75
2022/11/15 05:12:48;;;;;;;46.45;34.75;;;;;;;4.50;78.66;95415.78;5138753;27;20190;-75
2022/11/15 05:15:16;;;;;;;49.28;31.25;;;;;;;4.51;78.62;95418.22;5138370;27;20195;-74
2022/11/15 05:17:44;;;;;;;47.88;30.55;;;;;;;4.55;78.95;95418.41;5138939;27;20171;-74
2022/11/15 05:20:13;;;;;;;50.40;32.17;;;;;;;4.57;79.01;95413.44;5137744;27;20555;-73
2022/11/15 05:22:40;;;;;;;53.10;33.58;;;;;;;4.59;79.08;95414.75;5138012;27;20210;-74
2022/11/15 05:25:09;;;;;;;54.20;33.08;;;;;;;4.63;79.21;95411.41;5138129;27;20194;-74
2022/11/15 05:27:36;;;;;;;53.97;33.30;;;;;;;4.60;79.23;95404.63;5137872;27;20195;-74
2022/11/15 05:30:06;;;;;;;57.42;34.28;;;;;;;4.59;79.62;95405.75;5138052;27;20215;-73
2022/11/15 05:32:33;;;;;;;60.20;35.30;;;;;;;4.60;79.86;95410.09;5137822;27;20194;-73
2022/11/15 05:35:02;;;;;;;58.30;37.70;;;;;;;4.54;79.65;95408.59;5137857;27;20202;-72
2022/11/15 05:37:29;;;;;;;65.68;39.55;;;;;;;4.50;79.92;95399.38;5138091;27;20271;-72
2022/11/15 05:39:56;;;;;;;67.47;40.50;;;;;;;4.46;80.15;95407.38;5137887;27;20223;-72
2022/11/15 05:42:26;;;;;;;73.38;42.78;;;;;;;4.43;80.32;95401.72;5137535;27;20234;-72
2022/11/15 05:44:53;;;;;;;74.80;46.33;;;;;;;4.44;80.50;95409.63;5138434;27;20187;-72
2022/11/15 05:47:24;;;;;;;76.45;48.97;;;;;;;4.45;80.83;95408.50;5137866;27;20199;-71
2022/11/15 05:49:51;;;;;;;88.63;53.13;;;;;;;4.48;81.06;95410.63;5137181;27;20642;-71
2022/11/15 05:52:22;;;;;;;99.00;53.88;;;;;;;4.52;81.21;95413.56;5137542;27;20187;-73
2022/11/15 05:54:49;;;;;;;88.20;55.30;;;;;;;4.52;81.29;95417.09;5138077;27;20190;-72
2022/11/15 05:57:17;;;;;;;97.60;58.25;;;;;;;4.57;81.30;95421.63;5137724;27;20191;-72
2022/11/15 05:59:45;;;;;;;116.15;70.28;;;;;;;4.57;81.49;95418.91;5137198;27;20523;-72
2022/11/15 06:02:12;;;;;;;105.32;69.50;;;;;;;4.59;81.61;95419.41;5137307;27;20210;-71
2022/11/15 06:04:39;;;;;;;93.80;59.20;;;;;;;4.60;81.59;95423.75;5136982;27;20226;-72
2022/11/15 06:07:07;;;;;;;84.07;54.85;;;;;;;4.61;81.67;95424.56;5137595;27;20206;-72
2022/11/15 06:09:33;;;;;;;90.78;56.03;;;;;;;4.60;82.01;95429.22;5137301;27;20191;-72
2022/11/15 06:12:00;;;;;;;96.35;63.33;;;;;;;4.61;82.00;95421.81;5137135;27;20195;-71
2022/11/15 06:14:27;;;;;;;102.05;64.68;;;;;;;4.61;82.17;95425.38;5136917;27;20635;-71
2022/11/15 06:16:55;;;;;;;96.10;64.30;;;;;;;4.64;82.14;95421.22;5137449;27;20209;-72
2022/11/15 06:19:22;;;;;;;97.68;66.55;;;;;;;4.62;82.36;95418.81;5136712;27;20419;-70
2022/11/15 06:21:50;;;;;;;91.88;60.58;;;;;;;4.64;82.45;95415.75;5137048;27;20198;-74
2022/11/15 06:24:17;;;;;;;72.20;45.83;;;;;;;4.65;82.47;95423.66;5136822;27;20207;-71
2022/11/15 06:26:44;;;;;;;83.15;49.33;;;;;;;4.67;82.79;95423.34;5136801;27;20202;-71
2022/11/15 06:29:11;;;;;;;68.38;47.97;;;;;;;4.70;82.74;95418.06;5137056;27;20191;-71
2022/11/15 06:31:38;;;;;;;82.45;53.22;;;;;;;4.68;82.93;95420.28;5136834;27;20222;-71
2022/11/15 06:34:18;;;;;;;74.00;49.50;;;;;;;4.62;82.97;95410.59;5136595;27;20199;-71
2022/11/15 06:36:44;;;;;;;69.22;44.67;;;;;;;4.62;83.02;95413.34;5136524;27;20195;-71
2022/11/15 06:39:11;;;;;;;52.80;33.35;;;;;;;4.61;83.14;95424.56;5136569;27;20195;-71
2022/11/15 06:41:38;;;;;;;47.53;32.17;;;;;;;4.59;83.28;95422.16;5136778;27;20187;-71
2022/11/15 06:44:05;;;;;;;54.28;33.95;;;;;;;4.61;83.54;95425.38;5136526;27;20199;-71
2022/11/15 06:46:32;;;;;;;57.72;36.55;;;;;;;4.65;83.30;95410.00;5136102;27;20191;-71
2022/11/15 06:49:00;;;;;;;70.45;49.15;;;;;;;4.65;83.41;95415.47;5136923;27;20191;-72
2022/11/15 06:51:29;;;;;;;72.65;49.90;;;;;;;4.63;83.26;95417.69;5136508;27;20214;-71
2022/11/15 06:53:55;;;;;;;79.60;51.92;;;;;;;4.65;83.67;95418.19;5136410;27;20196;-71
2022/11/15 06:56:22;;;;;;;90.65;55.97;;;;;;;4.67;83.64;95412.41;5136176;27;20202;-69
2022/11/15 06:58:49;;;;;;;70.90;44.80;;;;;;;4.68;83.52;95409.34;5136391;27;20210;-69
2022/11/15 07:01:15;;;;;;;77.63;50.97;;;;;;;4.70;83.54;95409.88;5136125;27;20602;-69
2022/11/15 07:03:43;;;;;;;78.22;51.03;;;;;;;4.59;83.11;95412.03;5135994;27;20488;-68
2022/11/15 07:06:11;;;;;;;74.10;47.88;;;;;;;4.52;83.66;95411.63;5135941;27;20195;-69
2022/11/15 07:08:39;;;;;;;70.18;44.72;;;;;;;4.49;83.67;95406.78;5136497;27;20210;-69
2022/11/15 07:11:08;;;;;;;61.58;43.63;;;;;;;4.48;83.89;95410.63;5135933;27;20218;-69
2022/11/15 07:13:36;;;;;;;62.10;43.95;;;;;;;4.52;84.41;95408.09;5135780;27;20202;-69
2022/11/15 07:16:04;;;;;;;63.92;45.75;;;;;;;4.49;84.26;95404.03;5136418;27;20205;-69
2022/11/15 07:18:31;;;;;;;63.08;44.90;;;;;;;4.50;84.16;95402.94;5136150;27;20653;-69
2022/11/15 07:21:01;;;;;;;58.08;40.60;;;;;;;4.47;84.55;95411.75;5136173;27;20651;-70
2022/11/15 07:23:28;;;;;;;58.95;40.05;;;;;;;4.52;84.53;95417.09;5136015;27;20191;-70
2022/11/15 07:25:57;;;;;;;55.38;39.22;;;;;;;4.46;83.99;95414.75;5135684;27;20198;-70
2022/11/15 07:28:24;;;;;;;56.88;40.05;;;;;;;4.45;84.45;95416.69;5135924;27;20191;-69
2022/11/15 07:30:51;;;;;;;62.03;41.40;;;;;;;4.51;84.42;95417.41;5135708;27;20283;-69
2022/11/15 07:33:17;;;;;;;63.50;41.85;;;;;;;4.56;84.57;95414.56;5136073;27;20195;-70
2022/11/15 07:35:46;;;;;;;62.80;39.50;;;;;;;4.57;84.85;95414.25;5135502;27;20195;-69
2022/11/15 07:38:14;;;;;;;57.65;40.35;;;;;;;4.60;84.79;95407.34;5135727;27;20599;-69
2022/11/15 07:40:41;;;;;;;59.03;40.35;;;;;;;4.64;84.35;95411.09;5135730;27;20252;-69
2022/11/15 07:43:10;;;;;;;58.70;39.45;;;;;;;4.69;84.24;95415.66;5134774;27;20241;-69
2022/11/15 07:45:41;;;;;;;60.60;40.67;;;;;;;4.68;84.10;95409.34;5135389;27;20541;-69
2022/11/15 07:48:08;;;;;;;59.42;40.40;;;;;;;4.67;84.05;95412.41;5135710;27;20195;-69
2022/11/15 07:50:35;;;;;;;55.28;38.67;;;;;;;4.65;84.04;95420.09;5135217;27;20279;-69
2022/11/15 07:53:02;;;;;;;60.60;41.38;;;;;;;4.65;83.94;95410.00;5135307;27;20198;-69
2022/11/15 07:55:29;;;;;;;60.33;39.80;;;;;;;4.70;83.98;95411.81;5135258;28;20195;-69
2022/11/15 07:58:01;;;;;;;60.33;41.40;;;;;;;4.74;84.24;95407.34;5135593;28;20210;-70
2022/11/15 08:00:29;;;;;;;61.60;41.00;;;;;;;4.75;84.03;95406.22;5135178;28;20203;-69
2022/11/15 08:03:02;;;;;;;59.85;40.40;;;;;;;4.78;83.97;95411.88;5135618;28;20199;-69
2022/11/15 08:05:29;;;;;;;59.53;41.30;;;;;;;4.84;84.02;95409.84;5135264;28;20202;-69
2022/11/15 08:07:56;;;;;;;63.13;42.53;;;;;;;4.87;83.56;95413.91;5135389;28;20206;-69
2022/11/15 08:10:23;;;;;;;68.20;45.45;;;;;;;4.92;83.64;95411.03;5135437;28;20215;-70
2022/11/15 08:12:57;;;;;;;73.63;48.25;;;;;;;4.95;83.70;95403.03;5135591;28;20281;-70
2022/11/15 08:15:24;;;;;;;68.18;45.97;;;;;;;4.97;83.74;95403.50;5135266;28;20198;-70
2022/11/15 08:17:56;;;;;;;63.22;43.03;;;;;;;5.03;83.65;95407.75;5134997;28;20205;-70
2022/11/15 08:20:22;;;;;;;63.85;44.30;;;;;;;5.06;83.50;95398.13;5135279;28;20195;-70
2022/11/15 08:22:49;;;;;;;60.63;44.05;;;;;;;5.07;83.28;95395.06;5135294;28;20195;-68
2022/11/15 08:25:16;;;;;;;62.45;45.15;;;;;;;5.07;83.13;95395.06;5134998;28;20191;-69
2022/11/15 08:27:43;;;;;;;64.68;44.10;;;;;;;5.06;82.71;95398.13;5135058;28;20196;-69
2022/11/15 08:30:11;;;;;;;63.70;44.80;;;;;;;5.06;82.69;95401.66;5135099;28;20591;-69
2022/11/15 08:32:37;;;;;;;64.20;45.28;;;;;;;5.02;82.50;95388.94;5135425;28;20191;-69
2022/11/15 08:35:08;;;;;;;68.45;44.10;;;;;;;5.05;82.89;95391.06;5134981;28;20203;-69
2022/11/15 08:37:35;;;;;;;73.10;48.58;;;;;;;5.16;83.60;95388.88;5134768;28;20249;-69
2022/11/15 08:40:02;;;;;;;76.50;50.53;;;;;;;5.19;83.04;95385.50;5135473;28;20206;-69
2022/11/15 08:42:29;;;;;;;75.15;49.67;;;;;;;5.21;83.26;95388.75;5134941;28;20234;-69
2022/11/15 08:44:56;;;;;;;71.53;49.03;;;;;;;5.23;82.87;95386.53;5134847;28;20195;-69
2022/11/15 08:47:23;;;;;;;78.45;52.42;;;;;;;5.24;82.84;95388.13;5134897;28;20184;-70
2022/11/15 08:49:50;;;;;;;82.47;53.70;;;;;;;5.24;82.92;95388.13;5134557;28;20195;-69
2022/11/15 08:52:18;;;;;;;83.30;53.85;;;;;;;5.26;82.99;95374.94;5135010;27;20219;-70
2022/11/15 08:54:44;;;;;;;89.43;58.10;;;;;;;5.27;82.87;95379.31;5137401;27;20615;-70
2022/11/15 08:57:11;;;;;;;90.20;58.63;;;;;;;5.29;82.81;95371.59;5138667;27;20203;-69
2022/11/15 08:59:38;;;;;;;88.05;53.20;;;;;;;5.32;82.66;95373.69;5138148;27;20611;-69
2022/11/15 09:02:05;;;;;;;88.82;56.60;;;;;;;5.35;82.46;95366.81;5138597;27;20198;-70
2022/11/15 09:04:32;;;;;;;88.93;56.30;;;;;;;5.34;82.54;95360.53;5138081;27;20611;-71
2022/11/15 09:06:59;;;;;;;90.55;55.78;;;;;;;5.34;82.25;95356.97;5138254;27;20195;-71
2022/11/15 09:09:27;;;;;;;94.40;57.20;;;;;;;5.32;82.47;95362.75;5138522;27;20191;-71
2022/11/15 09:11:53;;;;;;;97.22;58.83;;;;;;;5.29;82.45;95349.69;5137949;27;20221;-71
2022/11/15 09:14:20;;;;;;;99.78;61.08;;;;;;;5.29;82.46;95349.69;5138387;27;20195;-71
2022/11/15 09:16:47;;;;;;;95.03;58.67;;;;;;;5.34;82.68;95354.22;5138239;27;20198;-71
2022/11/15 09:19:14;;;;;;;92.57;56.00;;;;;;;5.40;82.42;95352.97;5138294;27;20289;-71
2022/11/15 09:21:41;;;;;;;91.03;55.42;;;;;;;5.41;82.21;95340.91;5138199;27;20226;-71
2022/11/15 09:24:08;;;;;;;92.97;56.47;;;;;;;5.44;82.19;95343.03;5138672;27;20194;-71
2022/11/15 09:26:36;;;;;;;89.35;55.17;;;;;;;5.48;82.30;95333.91;5137983;27;20277;-71
2022/11/15 09:29:04;;;;;;;92.57;54.65;;;;;;;5.49;81.83;95330.03;5138172;27;20202;-71
2022/11/15 09:31:31;;;;;;;92.07;55.58;;;;;;;5.53;81.41;95332.94;5137926;27;20337;-72
2022/11/15 09:33:58;;;;;;;91.55;55.25;;;;;;;5.56;81.60;95335.06;5138323;27;20198;-71
2022/11/15 09:36:25;;;;;;;97.78;58.30;;;;;;;5.60;81.58;95330.56;5138226;27;20190;-72
2022/11/15 09:38:51;;;;;;;104.93;57.53;;;;;;;5.59;81.36;95315.25;5137642;27;20206;-72
2022/11/15 09:41:29;;;;;;;97.55;57.88;;;;;;;5.62;81.30;95313.81;5137743;27;20195;-72
2022/11/15 09:44:10;;;;;;;98.18;57.65;;;;;;;5.59;81.28;95312.53;5137234;27;20530;-72
2022/11/15 09:46:48;;;;;;;95.53;58.15;;;;;;;5.62;81.25;95314.63;5137730;27;20194;-72
2022/11/15 09:49:16;;;;;;;95.85;58.95;;;;;;;5.64;81.23;95306.94;5137466;27;20209;-72
2022/11/15 09:51:47;;;;;;;92.72;58.05;;;;;;;5.61;81.07;95299.34;5137401;27;20546;-71
2022/11/15 09:54:23;;;;;;;94.93;58.60;;;;;;;5.63;80.89;95299.00;5137305;27;20615;-72
2022/11/15 09:56:51;;;;;;;93.63;57.00;;;;;;;5.58;80.75;95290.97;5137452;27;20187;-72
2022/11/15 09:59:31;;;;;;;78.53;50.65;;;;;;;5.61;81.27;95293.88;5137606;27;20195;-72
2022/11/15 10:02:01;;;;;;;81.22;50.88;;;;;;;5.67;81.05;95287.16;5137382;27;20202;-71
2022/11/15 10:04:29;;;;;;;76.60;52.28;;;;;;;5.75;81.07;95286.34;5137165;27;20206;-72
2022/11/15 10:07:01;;;;;;;84.10;53.50;;;;;;;5.87;80.86;95279.47;5137058;27;20195;-72
2022/11/15 10:09:31;;;;;;;81.53;52.05;;;;;;;5.94;80.50;95271.63;5137194;27;20200;-71
2022/11/15 10:11:58;;;;;;;79.88;53.22;;;;;;;6.05;80.53;95275.69;5137560;27;20221;-71
2022/11/15 10:14:29;;;;;;;79.80;52.25;;;;;;;6.16;80.00;95268.78;5137518;27;20191;-71
2022/11/15 10:17:21;;;;;;;82.60;51.83;;;;;;;6.33;80.16;95268.00;5137375;27;20264;-71
2022/11/15 10:19:55;;;;;;;79.28;52.97;;;;;;;6.49;79.79;95265.56;5125686;27;20203;-71
2022/11/15 10:22:28;;;;;;;72.97;51.13;;;;;;;6.63;79.24;95262.69;5137026;27;20207;-71
2022/11/15 10:25:14;;;;;;;80.55;51.88;;;;;;;6.83;78.45;95258.50;5137071;27;20206;-71
2022/11/15 10:27:43;;;;;;;81.32;50.88;;;;;;;7.08;78.59;95254.91;5136416;27;20203;-71
2022/11/15 10:30:15;;;;;;;70.88;46.35;;;;;;;7.28;77.79;95249.84;5136771;27;20195;-71
2022/11/15 10:32:43;;;;;;;76.60;49.67;;;;;;;7.46;76.95;95243.16;5136705;27;20218;-71
2022/11/15 10:35:22;;;;;;;63.72;47.78;;;;;;;7.59;76.17;95231.16;5136990;27;20217;-69
2022/11/15 10:37:49;;;;;;;67.22;49.05;;;;;;;7.69;75.80;95227.22;5136758;27;20603;-71
2022/11/15 10:40:18;;;;;;;60.90;47.13;;;;;;;7.83;75.59;95227.00;5136300;27;20206;-69
2022/11/15 10:42:45;;;;;;;65.53;46.80;;;;;;;7.96;75.12;95224.03;5136052;27;20242;-70
2022/11/15 10:45:29;;;;;;;66.95;47.45;;;;;;;8.05;74.30;95217.66;5136648;27;20195;-70
2022/11/15 10:48:21;;;;;;;68.07;47.85;;;;;;;8.15;73.37;95215.34;5136426;27;20192;-70
2022/11/15 10:50:48;;;;;;;64.10;47.13;;;;;;;8.20;73.42;95204.13;5136073;27;20183;-70
2022/11/15 10:53:19;;;;;;;63.85;45.95;;;;;;;8.23;72.59;95201.88;5136584;27;20256;-70
2022/11/15 10:55:49;;;;;;;61.38;43.55;;;;;;;8.26;72.83;95201.19;5136240;27;20191;-70
2022/11/15 10:58:22;;;;;;;62.83;45.08;;;;;;;8.15;71.93;95193.34;5136438;27;20203;-70
2022/11/15 11:00:53;;;;;;;62.80;46.00;;;;;;;8.20;72.30;95198.63;5136147;27;20187;-70
2022/11/15 11:03:31;;;;;;;55.38;40.75;;;;;;;8.28;72.11;95186.00;5136054;27;20192;-70
2022/11/15 11:06:06;;;;;;;53.38;39.00;;;;;;;8.38;71.86;95187.53;5136110;27;20183;-70
2022/11/15 11:08:33;;;;;;;54.10;38.92;;;;;;;8.40;71.31;95185.28;5135719;27;20641;-70
2022/11/15 11:11:02;;;;;;;54.05;40.13;;;;;;;8.51;70.83;95183.72;5136940;27;20190;-70
2022/11/15 11:13:30;;;;;;;55.95;40.60;;;;;;;8.59;70.91;95180.09;5135848;27;20551;-70
2022/11/15 11:16:07;;;;;;;56.03;40.78;;;;;;;8.73;71.18;95168.00;5135707;27;20195;-70
2022/11/15 11:18:35;;;;;;;60.00;42.92;;;;;;;8.78;70.44;95165.03;5135940;27;20538;-70
2022/11/15 11:21:06;;;;;;;60.70;43.25;;;;;;;8.81;69.65;95156.91;5135470;27;20214;-70
2022/11/15 11:23:45;;;;;;;57.33;43.00;;;;;;;8.93;69.89;95156.13;5135791;27;20210;-70
2022/11/15 11:26:27;;;;;;;59.92;42.92;;;;;;;8.99;69.87;95157.53;5135934;27;20213;-70
2022/11/15 11:28:59;;;;;;;59.60;43.92;;;;;;;9.01;69.23;95149.75;5135844;27;20194;-70
2022/11/15 11:31:31;;;;;;;56.85;43.10;;;;;;;8.93;68.54;95145.13;5135230;27;20218;-70
2022/11/15 11:34:05;;;;;;;61.92;42.88;;;;;;;8.87;69.28;95130.00;5135626;27;20205;-70
2022/11/15 11:36:39;;;;;;;60.63;44.38;;;;;;;8.83;69.31;95137.31;5135694;27;20649;-70
2022/11/15 11:39:22;;;;;;;61.75;43.90;;;;;;;8.82;69.25;95120.03;5135499;27;20194;-70
2022/11/15 11:41:56;;;;;;;58.97;43.72;;;;;;;8.90;69.41;95121.88;5136083;27;20191;-70
2022/11/15 11:44:33;;;;;;;56.83;43.95;;;;;;;8.92;69.23;95110.50;5135856;27;20198;-70
2022/11/15 11:47:03;;;;;;;62.47;44.63;;;;;;;8.96;69.02;95110.63;5135236;27;20206;-70